Time;durP1;ratioP1;P1;durP2;ratioP2;P2;SDS_P1;SDS_P2;PMS_P1;PMS_P2;Temp;Humidity;BMP_temperature;BMP_pressure;BME280_temperature;BME280_humidity;BME280_pressure;Samples;Min_cycle;Max_cycle;Signal;HPM_P1;HPM_P2
2023/10/03 00:00:59;;;;;;;47.38;30.80;;;18.80;99.90;;;;;;6247940;22;20374;-91
2023/10/03 00:03:25;;;;;;;45.37;29.27;;;18.80;99.90;;;;;;6249323;22;20441;-92
2023/10/03 00:05:51;;;;;;;49.80;31.00;;;18.80;99.90;;;;;;6247858;22;20842;-91
2023/10/03 00:08:18;;;;;;;46.67;30.33;;;18.40;99.90;;;;;;6274840;22;20442;-92
2023/10/03 00:10:45;;;;;;;48.90;31.52;;;18.60;99.90;;;;;;6247881;22;20358;-90
2023/10/03 00:13:12;;;;;;;49.43;30.80;;;18.50;99.90;;;;;;6248731;22;20371;-92
2023/10/03 00:15:45;;;;;;;50.47;32.28;;;18.80;99.90;;;;;;6274501;22;20417;-90
2023/10/03 00:18:12;;;;;;;50.53;31.15;;;18.80;99.90;;;;;;6247662;22;20359;-91
2023/10/03 00:20:38;;;;;;;52.85;31.30;;;18.60;99.90;;;;;;6249352;22;20450;-91
2023/10/03 00:23:06;;;;;;;50.45;31.70;;;18.60;99.90;;;;;;6247646;22;20925;-92
2023/10/03 00:25:34;;;;;;;49.70;31.55;;;18.40;99.90;;;;;;6248878;22;20429;-90
2023/10/03 00:28:00;;;;;;;47.63;31.10;;;18.60;99.90;;;;;;6273337;22;20371;-91
2023/10/03 00:30:30;;;;;;;48.63;30.45;;;18.40;99.90;;;;;;6273882;22;20371;-92
2023/10/03 00:32:57;;;;;;;51.33;31.83;;;18.40;99.90;;;;;;6248959;22;20369;-90
2023/10/03 00:35:24;;;;;;;51.90;32.40;;;18.80;99.90;;;;;;6247447;22;20454;-92
2023/10/03 00:37:51;;;;;;;49.83;32.80;;;18.70;99.90;;;;;;6274465;22;20405;-91
2023/10/03 00:40:27;;;;;;;46.28;31.10;;;18.80;99.90;;;;;;6272701;22;21256;-93
2023/10/03 00:43:00;;;;;;;48.45;31.95;;;18.40;99.90;;;;;;6249179;22;20390;-92
2023/10/03 00:45:29;;;;;;;47.13;31.33;;;18.50;99.90;;;;;;6247982;22;20445;-92
2023/10/03 00:47:59;;;;;;;45.90;30.30;;;18.60;99.90;;;;;;6247804;22;20362;-93
2023/10/03 00:50:27;;;;;;;46.72;30.83;;;18.50;99.90;;;;;;6274507;22;20687;-93
2023/10/03 00:53:00;;;;;;;42.70;28.37;;;18.70;99.90;;;;;;6246819;22;20402;-90
2023/10/03 00:55:30;;;;;;;43.25;29.05;;;18.80;99.90;;;;;;6273694;22;20370;-92
2023/10/03 00:58:07;;;;;;;43.55;29.23;;;18.50;99.90;;;;;;6245922;22;20691;-90
2023/10/03 01:00:38;;;;;;;48.80;30.60;;;18.70;99.90;;;;;;6248512;22;20894;-91
2023/10/03 01:03:05;;;;;;;48.20;31.50;;;18.40;99.90;;;;;;6248280;22;20449;-92
2023/10/03 01:05:31;;;;;;;43.95;30.45;;;18.40;99.90;;;;;;6247101;22;20359;-92
2023/10/03 01:07:57;;;;;;;46.53;30.23;;;18.40;99.90;;;;;;6274492;22;20715;-91
2023/10/03 01:10:23;;;;;;;45.47;29.47;;;18.90;99.90;;;;;;6246494;22;20370;-90
2023/10/03 01:12:49;;;;;;;43.20;28.08;;;18.50;99.90;;;;;;6248388;22;20359;-91
2023/10/03 01:15:21;;;;;;;44.38;29.70;;;18.80;99.90;;;;;;6246548;22;20355;-92
2023/10/03 01:17:53;;;;;;;43.00;28.45;;;18.40;99.90;;;;;;6248339;22;20354;-92
2023/10/03 01:20:28;;;;;;;43.70;27.85;;;18.60;99.90;;;;;;6273245;22;20696;-90
2023/10/03 01:22:54;;;;;;;41.55;28.55;;;18.70;99.90;;;;;;6271840;22;20401;-93
2023/10/03 01:25:22;;;;;;;41.03;28.30;;;18.30;99.90;;;;;;6247733;22;20389;-90
2023/10/03 01:27:47;;;;;;;44.35;29.02;;;18.30;99.90;;;;;;6271251;22;20382;-90
2023/10/03 01:30:13;;;;;;;45.05;29.63;;;18.30;99.90;;;;;;6272999;22;20362;-89
2023/10/03 01:32:49;;;;;;;46.37;30.07;;;18.50;99.90;;;;;;6272567;22;20385;-93
2023/10/03 01:35:15;;;;;;;41.88;28.13;;;18.50;99.90;;;;;;6272942;22;20419;-93
2023/10/03 01:37:41;;;;;;;45.27;29.03;;;18.70;99.90;;;;;;6248019;22;20369;-91
2023/10/03 01:40:13;;;;;;;41.83;28.23;;;18.30;99.90;;;;;;6246589;22;21231;-90
2023/10/03 01:42:46;;;;;;;42.13;28.98;;;18.30;99.90;;;;;;6273790;22;20874;-90
2023/10/03 01:45:32;;;;;;;42.50;27.80;;;18.30;99.90;;;;;;6271566;22;20358;-91
2023/10/03 01:48:05;;;;;;;41.40;26.92;;;18.60;99.90;;;;;;6246294;22;20362;-90
2023/10/03 01:50:33;;;;;;;41.45;27.85;;;18.20;99.90;;;;;;6247297;22;20359;-90
2023/10/03 01:52:59;;;;;;;41.50;27.17;;;18.20;99.90;;;;;;6245900;22;20377;-91
2023/10/03 01:55:25;;;;;;;39.28;26.80;;;18.20;99.90;;;;;;6272908;22;20373;-89
2023/10/03 01:57:52;;;;;;;37.60;25.27;;;18.30;99.90;;;;;;6246022;22;21005;-91
2023/10/03 02:00:25;;;;;;;40.50;24.73;;;18.50;99.90;;;;;;6247980;22;20454;-90
2023/10/03 02:03:06;;;;;;;36.90;24.88;;;18.10;99.90;;;;;;6245448;22;20390;-90
2023/10/03 02:05:34;;;;;;;37.67;24.05;;;18.20;99.90;;;;;;6272896;22;20716;-91
2023/10/03 02:08:07;;;;;;;37.10;23.55;;;18.60;99.90;;;;;;6273010;22;20363;-90
2023/10/03 02:10:34;;;;;;;36.88;23.70;;;18.30;99.90;;;;;;6272971;22;20448;-90
2023/10/03 02:13:04;;;;;;;39.22;24.70;;;18.30;99.90;;;;;;6273753;22;20363;-92
2023/10/03 02:15:30;;;;;;;35.33;22.40;;;18.20;99.90;;;;;;6246225;22;20374;-90
2023/10/03 02:17:57;;;;;;;37.40;22.73;;;18.50;99.90;;;;;;6247156;22;20402;-90
2023/10/03 02:20:25;;;;;;;36.97;24.23;;;18.50;99.90;;;;;;6271048;22;20363;-90
2023/10/03 02:22:54;;;;;;;37.22;23.90;;;18.00;99.90;;;;;;6272123;22;20431;-90
2023/10/03 02:25:28;;;;;;;37.45;23.08;;;18.70;99.90;;;;;;6272043;22;20382;-91
2023/10/03 02:27:57;;;;;;;38.22;22.88;;;18.20;99.90;;;;;;6245647;22;20464;-90
2023/10/03 02:30:27;;;;;;;36.33;22.45;;;18.20;99.90;;;;;;6247128;22;20845;-90
2023/10/03 02:32:57;;;;;;;33.42;21.58;;;18.20;99.90;;;;;;6272453;22;20432;-89
2023/10/03 02:35:25;;;;;;;35.03;22.15;;;18.30;99.90;;;;;;6274676;22;20773;-90
2023/10/03 02:37:56;;;;;;;38.03;21.67;;;18.80;99.90;;;;;;6273507;22;20370;-88
2023/10/03 02:40:26;;;;;;;33.60;20.77;;;18.70;99.90;;;;;;6248310;22;20403;-89
2023/10/03 02:42:53;;;;;;;35.92;21.60;;;18.20;99.90;;;;;;6249091;22;20398;-88
2023/10/03 02:45:22;;;;;;;35.30;21.23;;;18.00;99.90;;;;;;6248056;22;20373;-89
2023/10/03 02:48:13;;;;;;;31.75;20.02;;;18.30;99.90;;;;;;6249296;22;20358;-89
2023/10/03 02:50:41;;;;;;;33.30;19.58;;;18.50;99.90;;;;;;6273158;22;20513;-89
2023/10/03 02:53:11;;;;;;;34.00;20.05;;;18.60;99.90;;;;;;6274521;22;20362;-88
2023/10/03 02:55:37;;;;;;;32.78;19.98;;;18.60;99.90;;;;;;6248579;22;20381;-93
2023/10/03 02:58:04;;;;;;;32.90;20.10;;;18.50;99.90;;;;;;6273464;22;20363;-92
2023/10/03 03:00:30;;;;;;;35.22;20.55;;;18.10;99.90;;;;;;6249019;22;20467;-89
2023/10/03 03:02:56;;;;;;;32.67;19.83;;;18.20;99.90;;;;;;6272435;22;20386;-90
2023/10/03 03:05:22;;;;;;;34.35;19.58;;;18.70;99.90;;;;;;6274039;22;20673;-90
2023/10/03 03:07:49;;;;;;;31.38;18.30;;;18.40;99.90;;;;;;6272705;22;20398;-91
2023/10/03 03:10:18;;;;;;;31.97;19.23;;;18.60;99.90;;;;;;6248699;22;20917;-92
2023/10/03 03:12:44;;;;;;;31.65;19.00;;;18.50;99.90;;;;;;6248169;22;20374;-91
2023/10/03 03:15:23;;;;;;;33.83;19.98;;;18.50;99.90;;;;;;6248595;22;20882;-90
2023/10/03 03:17:55;;;;;;;33.70;18.10;;;18.50;99.90;;;;;;6248988;22;20370;-92
2023/10/03 03:20:26;;;;;;;31.90;18.13;;;18.40;99.90;;;;;;6273719;22;20416;-92
2023/10/03 03:22:52;;;;;;;31.05;18.42;;;18.90;99.90;;;;;;6249683;22;20389;-90
2023/10/03 03:25:35;;;;;;;30.60;17.60;;;19.10;99.90;;;;;;6273079;22;20373;-89
2023/10/03 03:28:02;;;;;;;30.57;17.97;;;19.50;99.90;;;;;;6249263;22;20370;-90
2023/10/03 03:32:54;;;;;;;30.30;17.08;;;19.10;99.90;;;;;;6272732;22;20810;-90
2023/10/03 03:35:24;;;;;;;31.67;18.40;;;19.10;99.90;;;;;;6248926;22;20454;-93
2023/10/03 03:37:55;;;;;;;31.75;17.80;;;19.20;99.90;;;;;;6272456;22;20420;-92
2023/10/03 03:40:33;;;;;;;30.77;18.02;;;19.10;99.90;;;;;;6274527;22;20359;-89
2023/10/03 03:43:02;;;;;;;30.25;17.30;;;18.80;99.90;;;;;;6273028;22;20391;-89
2023/10/03 03:45:27;;;;;;;31.55;18.20;;;18.80;99.90;;;;;;6273390;22;20739;-90
2023/10/03 03:47:54;;;;;;;30.75;17.83;;;19.10;99.90;;;;;;6249101;22;20378;-90
2023/10/03 03:50:24;;;;;;;29.70;17.97;;;18.80;99.90;;;;;;6273024;22;20429;-89
2023/10/03 03:52:51;;;;;;;31.77;18.50;;;18.80;99.90;;;;;;6274024;22;20459;-91
2023/10/03 03:55:17;;;;;;;30.95;18.23;;;18.80;99.90;;;;;;6246951;22;20355;-91
2023/10/03 03:57:45;;;;;;;32.65;17.92;;;18.70;99.90;;;;;;6274389;22;20390;-90
2023/10/03 04:00:14;;;;;;;28.83;17.23;;;19.20;99.90;;;;;;6247362;22;21111;-88
2023/10/03 04:02:40;;;;;;;32.83;18.50;;;18.80;99.90;;;;;;6273445;22;20394;-90
2023/10/03 04:05:07;;;;;;;29.52;18.10;;;19.10;99.90;;;;;;6248633;22;20869;-90
2023/10/03 04:07:34;;;;;;;29.57;17.10;;;18.70;99.90;;;;;;6272420;22;20390;-90
2023/10/03 04:10:00;;;;;;;31.83;18.48;;;18.80;99.90;;;;;;6275239;22;20363;-92
2023/10/03 04:12:29;;;;;;;29.10;17.58;;;19.10;99.90;;;;;;6247010;22;20741;-93
2023/10/03 04:14:54;;;;;;;30.48;18.25;;;18.70;99.90;;;;;;6274011;22;20463;-90
2023/10/03 04:17:20;;;;;;;28.33;17.42;;;18.60;99.90;;;;;;6272581;22;20374;-91
2023/10/03 04:19:46;;;;;;;31.43;17.63;;;18.60;99.90;;;;;;6249674;22;20359;-91
2023/10/03 04:22:12;;;;;;;29.77;18.27;;;18.50;99.90;;;;;;6274166;22;20983;-91
2023/10/03 04:24:38;;;;;;;31.35;17.55;;;18.90;99.90;;;;;;6248686;22;20375;-92
2023/10/03 04:27:04;;;;;;;30.50;17.42;;;18.60;99.90;;;;;;6276019;22;20374;-92
2023/10/03 04:29:31;;;;;;;27.73;16.43;;;18.70;99.90;;;;;;6247224;22;20735;-89
2023/10/03 04:31:57;;;;;;;30.08;17.20;;;18.70;99.90;;;;;;6274472;22;20907;-91
2023/10/03 04:34:23;;;;;;;28.27;16.95;;;18.70;99.90;;;;;;6271859;22;20377;-91
2023/10/03 04:36:48;;;;;;;28.97;16.83;;;18.90;99.90;;;;;;6274109;22;20371;-96
2023/10/03 04:39:14;;;;;;;28.42;17.00;;;18.80;99.90;;;;;;6247408;22;20737;-88
2023/10/03 04:41:45;;;;;;;28.73;16.00;;;18.80;99.90;;;;;;6248573;22;20827;-90
2023/10/03 04:44:15;;;;;;;29.17;15.88;;;19.10;99.90;;;;;;6273714;22;20382;-90
2023/10/03 04:46:41;;;;;;;26.97;15.73;;;19.30;99.90;;;;;;6246352;22;20367;-91
2023/10/03 04:49:07;;;;;;;30.90;16.00;;;19.00;99.90;;;;;;6250026;22;20830;-94
2023/10/03 04:51:33;;;;;;;29.20;15.55;;;18.90;99.90;;;;;;6246877;22;20749;-92
2023/10/03 04:53:58;;;;;;;29.60;15.97;;;19.10;99.90;;;;;;6248909;22;20815;-91
2023/10/03 04:56:24;;;;;;;27.05;15.05;;;19.30;99.90;;;;;;6272429;22;20359;-91
2023/10/03 04:58:50;;;;;;;27.30;15.07;;;19.30;99.90;;;;;;6274182;22;20370;-90
2023/10/03 05:01:16;;;;;;;28.25;15.73;;;19.30;99.90;;;;;;6273634;22;20366;-94
2023/10/03 05:03:41;;;;;;;31.70;16.60;;;19.70;99.90;;;;;;6248262;22;20914;-91
2023/10/03 05:06:09;;;;;;;31.17;17.27;;;19.80;99.90;;;;;;6248701;22;20414;-91
2023/10/03 05:08:37;;;;;;;31.75;16.40;;;19.50;99.90;;;;;;6245009;22;20370;-89
2023/10/03 05:11:05;;;;;;;30.73;16.17;;;19.40;99.90;;;;;;6248277;22;20409;-91
2023/10/03 05:13:31;;;;;;;37.58;18.33;;;19.40;99.90;;;;;;6271273;22;20432;-90
2023/10/03 05:15:57;;;;;;;36.65;19.58;;;19.40;99.90;;;;;;6273333;22;20801;-90
2023/10/03 05:18:23;;;;;;;42.00;20.73;;;19.50;99.90;;;;;;6247558;22;20401;-90
2023/10/03 05:20:49;;;;;;;39.33;19.80;;;19.10;99.90;;;;;;6272956;22;20367;-92
2023/10/03 05:23:15;;;;;;;42.58;21.05;;;19.40;99.90;;;;;;6274247;22;20390;-92
2023/10/03 05:25:44;;;;;;;41.23;21.17;;;19.40;99.90;;;;;;6246906;22;20824;-92
2023/10/03 05:28:12;;;;;;;40.42;20.52;;;19.30;99.90;;;;;;6248607;22;20371;-91
2023/10/03 05:30:38;;;;;;;40.38;20.90;;;19.30;99.90;;;;;;6271884;22;20420;-90
2023/10/03 05:33:07;;;;;;;39.63;20.90;;;19.50;99.90;;;;;;6273587;22;20358;-89
2023/10/03 05:35:33;;;;;;;39.70;21.92;;;19.20;99.90;;;;;;6245541;22;20362;-91
2023/10/03 05:37:59;;;;;;;39.73;21.70;;;19.30;99.90;;;;;;6273241;22;20681;-90
2023/10/03 05:40:26;;;;;;;42.33;22.20;;;19.60;99.90;;;;;;6247358;22;21246;-92
2023/10/03 05:42:52;;;;;;;41.20;22.92;;;19.30;99.90;;;;;;6245685;22;20448;-89
2023/10/03 05:45:19;;;;;;;36.00;20.83;;;19.20;99.90;;;;;;6248647;22;20869;-92
2023/10/03 05:47:47;;;;;;;34.75;20.52;;;19.30;99.90;;;;;;6246879;22;20733;-89
2023/10/03 05:50:20;;;;;;;34.20;20.10;;;19.50;99.90;;;;;;6273030;22;20363;-91
2023/10/03 05:52:46;;;;;;;35.10;18.20;;;19.20;99.90;;;;;;6271081;22;20926;-90
2023/10/03 05:55:13;;;;;;;33.72;18.48;;;19.20;99.90;;;;;;6272802;22;20382;-90
2023/10/03 05:57:41;;;;;;;37.97;19.23;;;19.60;99.90;;;;;;6271927;22;20366;-89
2023/10/03 06:00:10;;;;;;;32.47;18.30;;;19.20;99.90;;;;;;6271670;22;20373;-92
2023/10/03 06:02:39;;;;;;;30.00;17.92;;;19.20;99.90;;;;;;6272320;22;20391;-88
2023/10/03 06:05:09;;;;;;;34.63;18.02;;;19.60;99.90;;;;;;6270074;22;20374;-91
2023/10/03 06:07:38;;;;;;;30.05;17.45;;;19.20;99.90;;;;;;6274371;22;20878;-93
2023/10/03 06:10:04;;;;;;;26.50;15.93;;;19.20;99.90;;;;;;6248800;22;20724;-90
2023/10/03 06:12:31;;;;;;;25.77;15.83;;;19.20;99.90;;;;;;6275291;22;20435;-90
2023/10/03 06:14:56;;;;;;;25.25;15.75;;;19.40;99.90;;;;;;6274412;22;20402;-88
2023/10/03 06:17:22;;;;;;;22.00;14.57;;;19.20;99.90;;;;;;6274226;22;20432;-91
2023/10/03 06:19:48;;;;;;;23.67;14.77;;;19.10;99.90;;;;;;6275237;22;20424;-92
2023/10/03 06:22:13;;;;;;;21.20;14.50;;;19.10;99.90;;;;;;6247972;22;20867;-89
2023/10/03 06:24:39;;;;;;;20.38;14.02;;;19.40;99.90;;;;;;6274928;22;20406;-88
2023/10/03 06:27:08;;;;;;;21.43;14.20;;;19.10;99.90;;;;;;6272695;22;20397;-90
2023/10/03 06:29:34;;;;;;;23.77;14.15;;;19.10;99.90;;;;;;6274733;22;20386;-89
2023/10/03 06:32:00;;;;;;;21.60;14.45;;;19.10;99.90;;;;;;6273036;22;20771;-89
2023/10/03 06:34:26;;;;;;;22.65;14.43;;;19.40;99.90;;;;;;6249008;22;20370;-89
2023/10/03 06:36:52;;;;;;;22.70;14.73;;;19.10;99.90;;;;;;6248883;22;20377;-88
2023/10/03 06:39:18;;;;;;;25.65;15.02;;;19.30;99.90;;;;;;6272807;22;20366;-91
2023/10/03 06:41:44;;;;;;;26.40;15.63;;;19.30;99.90;;;;;;6248638;22;20465;-89
2023/10/03 06:44:10;;;;;;;26.23;14.43;;;19.10;99.90;;;;;;6247223;22;20415;-89
2023/10/03 06:46:37;;;;;;;28.50;14.30;;;19.30;99.90;;;;;;6248814;22;20809;-89
2023/10/03 06:49:04;;;;;;;32.28;14.18;;;19.00;99.90;;;;;;6246926;22;20416;-90
2023/10/03 06:51:29;;;;;;;33.38;14.00;;;19.30;99.90;;;;;;6273937;22;20366;-92
2023/10/03 06:53:55;;;;;;;30.65;13.90;;;18.60;99.90;;;;;;6274249;22;20908;-90
2023/10/03 06:56:21;;;;;;;30.23;12.40;;;19.20;99.90;;;;;;6273177;22;21036;-90
2023/10/03 06:58:47;;;;;;;31.85;11.93;;;18.80;99.90;;;;;;6248722;22;20370;-90
2023/10/03 07:01:12;;;;;;;30.58;10.55;;;19.00;99.90;;;;;;6246738;22;20458;-89
2023/10/03 07:03:40;;;;;;;24.40;9.23;;;18.80;99.90;;;;;;6274686;22;20386;-91
2023/10/03 07:06:06;;;;;;;25.77;7.97;;;18.60;99.90;;;;;;6246720;22;20461;-90
2023/10/03 07:08:32;;;;;;;24.95;7.72;;;18.80;99.90;;;;;;6248619;22;20800;-90
2023/10/03 07:10:58;;;;;;;29.60;8.10;;;18.80;99.90;;;;;;6272624;22;20379;-89
2023/10/03 07:13:26;;;;;;;27.85;8.27;;;18.80;99.90;;;;;;6248051;22;20364;-89
2023/10/03 07:15:55;;;;;;;21.77;7.03;;;18.50;99.90;;;;;;6248238;22;20398;-90
2023/10/03 07:18:22;;;;;;;22.63;6.93;;;18.30;99.90;;;;;;6271155;22;20862;-90
2023/10/03 07:20:48;;;;;;;22.88;6.53;;;18.50;99.90;;;;;;6274142;22;20367;-90
2023/10/03 07:23:14;;;;;;;21.90;6.47;;;18.50;99.90;;;;;;6272086;22;20921;-90
2023/10/03 07:25:39;;;;;;;15.63;5.18;;;18.20;99.90;;;;;;6274284;22;20976;-89
2023/10/03 07:28:05;;;;;;;18.60;5.37;;;18.30;99.90;;;;;;6272989;22;20867;-90
2023/10/03 07:30:31;;;;;;;17.70;4.82;;;18.30;99.90;;;;;;6248729;22;20367;-89
2023/10/03 07:32:57;;;;;;;16.57;4.80;;;18.00;99.90;;;;;;6274116;22;20374;-91
2023/10/03 07:35:23;;;;;;;12.18;3.20;;;18.30;99.90;;;;;;6247887;22;20844;-91
2023/10/03 07:37:51;;;;;;;12.70;3.00;;;17.90;99.90;;;;;;6248880;22;20401;-90
2023/10/03 07:40:17;;;;;;;14.85;3.20;;;18.20;99.90;;;;;;6272407;22;20426;-89
2023/10/03 07:42:43;;;;;;;12.93;2.85;;;17.70;99.90;;;;;;6274119;22;20399;-91
2023/10/03 07:45:09;;;;;;;11.47;2.37;;;18.00;99.90;;;;;;6272691;22;20867;-91
2023/10/03 07:47:37;;;;;;;12.87;2.10;;;17.60;99.90;;;;;;6249185;22;20746;-90
2023/10/03 07:50:03;;;;;;;12.75;1.85;;;17.50;99.90;;;;;;6273375;22;20358;-90
2023/10/03 07:52:29;;;;;;;10.35;1.40;;;17.50;99.90;;;;;;6248380;22;20408;-91
2023/10/03 07:54:56;;;;;;;9.43;1.20;;;17.40;99.90;;;;;;6249540;22;20371;-89
2023/10/03 07:57:26;;;;;;;10.23;1.30;;;17.20;99.90;;;;;;6246880;22;20454;-91
2023/10/03 07:59:52;;;;;;;9.88;1.35;;;17.30;99.90;;;;;;6248853;22;20695;-91
2023/10/03 08:02:18;;;;;;;10.85;1.10;;;17.20;99.90;;;;;;6246659;22;20390;-91
2023/10/03 08:04:46;;;;;;;7.80;1.00;;;17.40;99.90;;;;;;6274484;22;20699;-90
2023/10/03 08:07:22;;;;;;;8.57;1.10;;;17.10;99.90;;;;;;6247502;22;20542;-90
2023/10/03 08:09:50;;;;;;;7.18;0.68;;;17.10;99.90;;;;;;6248102;22;20385;-91
2023/10/03 08:12:24;;;;;;;6.60;0.57;;;17.40;99.90;;;;;;6274172;22;20685;-88
2023/10/03 08:14:52;;;;;;;8.30;0.77;;;17.10;99.90;;;;;;6272678;22;20389;-91
2023/10/03 08:17:26;;;;;;;8.75;0.98;;;17.40;99.90;;;;;;6248522;22;20367;-89
2023/10/03 08:19:52;;;;;;;8.15;0.52;;;17.00;99.90;;;;;;6272715;22;21133;-89
2023/10/03 08:22:20;;;;;;;8.40;1.00;;;17.50;99.90;;;;;;6273372;22;20823;-90
2023/10/03 08:24:47;;;;;;;6.30;0.40;;;17.40;99.90;;;;;;6247251;22;20374;-91
2023/10/03 08:27:21;;;;;;;7.00;0.60;;;17.20;99.90;;;;;;6247646;22;20407;-89
2023/10/03 08:29:57;;;;;;;7.25;0.63;;;17.50;99.90;;;;;;6273915;22;20374;-89
2023/10/03 08:32:27;;;;;;;7.82;0.70;;;17.60;99.90;;;;;;6272027;22;20409;-91
2023/10/03 08:34:52;;;;;;;4.25;0.65;;;17.30;99.90;;;;;;6249208;22;20850;-93
2023/10/03 08:37:21;;;;;;;4.70;0.40;;;17.10;99.90;;;;;;6247506;22;20374;-93
2023/10/03 08:39:54;;;;;;;4.85;0.43;;;17.10;99.90;;;;;;6249270;22;20371;-90
2023/10/03 08:42:34;;;;;;;4.28;0.25;;;16.80;99.90;;;;;;6273831;22;20478;-90
2023/10/03 08:45:26;;;;;;;6.90;0.43;;;16.00;99.90;;;;;;6247004;22;20677;-91
2023/10/03 08:47:53;;;;;;;4.28;0.40;;;16.40;99.90;;;;;;6248276;22;20378;-90
2023/10/03 08:50:40;;;;;;;5.40;0.30;;;16.30;99.90;;;;;;6272970;22;20367;-94
2023/10/03 08:53:16;;;;;;;9.47;0.37;;;16.30;99.90;;;;;;6248944;22;20389;-89
2023/10/03 08:55:49;;;;;;;4.53;0.30;;;16.40;99.90;;;;;;6250486;22;20382;-93
2023/10/03 08:58:18;;;;;;;4.70;0.30;;;16.40;99.90;;;;;;6272848;22;20374;-88
2023/10/03 09:00:49;;;;;;;4.38;0.28;;;16.30;99.90;;;;;;6249868;22;20851;-88
2023/10/03 09:03:17;;;;;;;4.15;0.20;;;15.90;99.90;;;;;;6272076;22;20393;-92
2023/10/03 09:05:51;;;;;;;6.53;0.28;;;15.80;99.90;;;;;;6249066;22;20441;-91
2023/10/03 09:08:17;;;;;;;5.20;0.30;;;16.10;99.90;;;;;;6273531;22;20400;-92
2023/10/03 09:10:51;;;;;;;4.15;0.28;;;15.60;99.90;;;;;;6273229;22;20851;-91
2023/10/03 09:13:24;;;;;;;3.33;0.30;;;16.00;99.90;;;;;;6248446;22;20359;-92
2023/10/03 09:16:02;;;;;;;5.55;0.30;;;15.60;99.90;;;;;;6246714;22;20378;-89
2023/10/03 09:18:41;;;;;;;5.90;0.60;;;15.60;99.90;;;;;;6247285;22;20375;-90
2023/10/03 09:21:23;;;;;;;5.07;0.30;;;15.60;99.90;;;;;;6247546;22;20382;-91
2023/10/03 09:24:01;;;;;;;4.60;0.30;;;15.60;99.90;;;;;;6246570;22;20881;-92
2023/10/03 09:26:47;;;;;;;3.97;0.40;;;15.80;99.90;;;;;;6249292;22;20375;-92
2023/10/03 09:29:32;;;;;;;5.38;0.40;;;15.80;99.90;;;;;;6271710;22;20692;-91
2023/10/03 09:32:12;;;;;;;6.13;0.50;;;16.20;99.90;;;;;;6273648;22;20409;-93
2023/10/03 09:34:44;;;;;;;3.60;0.40;;;16.10;99.90;;;;;;6248351;22;20712;-92
2023/10/03 09:37:10;;;;;;;6.45;0.40;;;16.30;99.90;;;;;;6246427;22;20386;-92
2023/10/03 09:39:39;;;;;;;5.93;0.50;;;16.00;99.90;;;;;;6248215;22;20428;-92
2023/10/03 09:42:15;;;;;;;7.25;0.30;;;16.00;99.90;;;;;;6246542;22;20382;-91
2023/10/03 09:44:51;;;;;;;5.28;0.55;;;16.00;99.90;;;;;;6247992;22;20831;-92
2023/10/03 09:47:18;;;;;;;5.28;0.38;;;16.20;99.90;;;;;;6247908;22;20933;-90
2023/10/03 09:49:47;;;;;;;5.53;0.60;;;16.80;99.90;;;;;;6272092;22;20358;-92
2023/10/03 09:52:26;;;;;;;6.17;0.50;;;16.20;99.90;;;;;;6247007;22;20711;-90
2023/10/03 09:54:53;;;;;;;6.75;0.60;;;16.20;99.90;;;;;;6271193;22;20374;-89
2023/10/03 09:57:21;;;;;;;5.78;0.60;;;16.60;99.90;;;;;;6272385;22;20381;-90
2023/10/03 09:59:48;;;;;;;5.00;0.47;;;16.30;99.90;;;;;;6246236;22;20393;-90
2023/10/03 10:02:30;;;;;;;5.03;0.40;;;16.40;99.90;;;;;;6272325;22;20393;-92
2023/10/03 10:05:01;;;;;;;4.00;0.40;;;16.40;99.90;;;;;;6247291;22;20432;-89
2023/10/03 10:07:35;;;;;;;5.07;0.40;;;16.40;99.90;;;;;;6245159;22;20398;-90
2023/10/03 10:10:20;;;;;;;3.63;0.25;;;16.40;99.90;;;;;;6248316;22;20389;-89
2023/10/03 10:13:26;;;;;;;3.33;0.30;;;16.40;99.90;;;;;;6246841;22;20851;-93
2023/10/03 10:16:00;;;;;;;2.10;0.38;;;16.70;99.90;;;;;;6120604;23;20385;-91
2023/10/03 10:18:44;;;;;;;4.70;0.40;;;16.30;99.90;;;;;;6098034;23;20379;-92
2023/10/03 10:21:31;;;;;;;3.43;0.40;;;16.40;99.90;;;;;;6194130;22;20824;-89
2023/10/03 10:24:15;;;;;;;3.83;0.30;;;16.30;99.90;;;;;;6272886;22;20418;-90
2023/10/03 10:26:42;;;;;;;3.78;0.50;;;16.30;99.90;;;;;;6274182;22;20378;-91
2023/10/03 10:29:09;;;;;;;4.63;0.38;;;16.30;99.90;;;;;;6247905;22;20444;-91
2023/10/03 10:31:43;;;;;;;4.45;0.30;;;16.10;99.90;;;;;;6273825;22;20417;-92
2023/10/03 10:34:21;;;;;;;4.20;0.35;;;16.30;99.90;;;;;;6246442;22;20386;-91
2023/10/03 10:37:04;;;;;;;5.75;0.60;;;15.90;99.90;;;;;;6247405;22;20712;-91
2023/10/03 10:40:12;;;;;;;3.35;0.30;;;15.80;99.90;;;;;;6273374;22;20431;-88
2023/10/03 10:42:58;;;;;;;3.83;0.45;;;15.60;99.90;;;;;;6271545;22;20391;-91
2023/10/03 10:45:25;;;;;;;2.75;0.40;;;15.60;99.90;;;;;;6247480;22;21230;-92
2023/10/03 10:47:51;;;;;;;1.85;0.30;;;15.60;99.90;;;;;;6248289;22;20740;-91
2023/10/03 10:50:26;;;;;;;3.88;0.20;;;15.50;99.90;;;;;;6271753;22;20457;-92
2023/10/03 10:52:56;;;;;;;2.78;0.30;;;15.50;99.90;;;;;;6248222;22;20406;-92
2023/10/03 10:55:24;;;;;;;4.10;0.40;;;16.00;99.90;;;;;;6247691;22;20669;-91
2023/10/03 10:58:12;;;;;;;2.42;0.40;;;15.70;99.90;;;;;;6250033;22;20940;-92
2023/10/03 11:00:39;;;;;;;4.30;0.50;;;15.50;99.90;;;;;;6248625;22;20371;-93
2023/10/03 11:03:06;;;;;;;4.97;0.70;;;15.80;99.90;;;;;;6247100;22;20711;-91
2023/10/03 11:05:49;;;;;;;6.40;1.30;;;15.70;99.90;;;;;;6250122;22;20839;-90
2023/10/03 11:08:17;;;;;;;6.30;1.05;;;15.10;99.90;;;;;;6248207;22;20367;-90
2023/10/03 11:10:53;;;;;;;5.55;1.50;;;14.90;99.90;;;;;;6249566;22;20707;-90
2023/10/03 11:13:19;;;;;;;6.33;1.20;;;14.80;99.90;;;;;;6248351;22;20431;-90
2023/10/03 11:15:53;;;;;;;7.53;1.35;;;14.50;99.90;;;;;;6274732;22;20370;-90
2023/10/03 11:18:30;;;;;;;6.22;1.50;;;15.30;99.90;;;;;;6249780;22;20406;-90
2023/10/03 11:20:57;;;;;;;5.57;1.30;;;14.90;99.90;;;;;;6247459;22;20746;-91
2023/10/03 11:23:23;;;;;;;8.02;1.45;;;15.20;99.90;;;;;;6249065;22;20394;-90
2023/10/03 11:25:57;;;;;;;5.70;1.67;;;15.20;99.90;;;;;;6272731;22;20381;-95
2023/10/03 11:28:28;;;;;;;8.15;1.40;;;14.80;99.90;;;;;;6248863;22;20758;-91
2023/10/03 11:31:06;;;;;;;7.07;1.40;;;14.80;99.90;;;;;;6273291;22;20707;-88
2023/10/03 11:33:42;;;;;;;7.22;1.30;;;14.80;99.90;;;;;;6247471;22;20382;-91
2023/10/03 11:36:08;;;;;;;5.55;1.35;;;14.80;99.90;;;;;;6275131;22;20400;-91
2023/10/03 11:38:50;;;;;;;6.25;1.35;;;14.90;99.90;;;;;;6272952;22;20378;-91
2023/10/03 11:41:37;;;;;;;5.95;1.38;;;14.60;99.90;;;;;;6249552;22;20910;-90
2023/10/03 11:44:04;;;;;;;9.30;1.42;;;14.50;99.90;;;;;;6274358;22;20379;-90
2023/10/03 11:46:39;;;;;;;7.10;1.08;;;14.50;99.90;;;;;;6248059;22;20416;-90
2023/10/03 11:49:08;;;;;;;7.05;1.13;;;14.50;99.90;;;;;;6267495;22;20406;-89
2023/10/03 11:51:33;;;;;;;7.80;1.40;;;14.40;99.90;;;;;;6247188;22;20363;-90
2023/10/03 11:53:59;;;;;;;8.85;1.50;;;14.40;99.90;;;;;;6248905;22;20382;-90
2023/10/03 11:56:24;;;;;;;7.87;1.60;;;14.30;99.90;;;;;;6272676;22;20362;-89
2023/10/03 11:58:54;;;;;;;9.30;1.52;;;14.50;99.90;;;;;;6245077;22;20439;-89
2023/10/03 12:01:20;;;;;;;9.02;1.55;;;14.60;99.90;;;;;;6272497;22;20389;-91
2023/10/03 12:03:45;;;;;;;8.05;1.50;;;14.70;99.90;;;;;;6272660;22;20393;-91
2023/10/03 12:06:11;;;;;;;9.70;1.80;;;14.80;99.90;;;;;;6247933;22;20371;-90
2023/10/03 12:08:40;;;;;;;8.30;1.30;;;14.90;99.90;;;;;;6246074;22;20358;-90
2023/10/03 12:11:07;;;;;;;9.13;1.45;;;15.00;99.90;;;;;;6273831;22;20406;-90
2023/10/03 12:13:32;;;;;;;8.60;1.40;;;15.40;99.90;;;;;;6272017;22;20371;-91
2023/10/03 12:15:58;;;;;;;10.20;1.80;;;15.20;99.90;;;;;;6273854;22;20722;-90
2023/10/03 12:18:26;;;;;;;8.13;1.33;;;15.60;99.90;;;;;;6272876;22;20907;-91
2023/10/03 12:20:53;;;;;;;8.20;1.38;;;15.90;99.90;;;;;;6247912;22;20378;-91
2023/10/03 12:23:19;;;;;;;7.18;1.08;;;15.70;99.90;;;;;;6274066;22;20413;-91
2023/10/03 12:25:45;;;;;;;7.90;1.20;;;16.10;99.90;;;;;;6246223;22;20865;-89
2023/10/03 12:28:10;;;;;;;9.77;1.40;;;16.10;99.90;;;;;;6273776;22;20408;-91
2023/10/03 12:30:36;;;;;;;13.13;1.47;;;16.20;99.90;;;;;;6271381;22;20409;-89
2023/10/03 12:33:02;;;;;;;7.88;1.38;;;16.10;99.90;;;;;;6273809;22;20458;-91
2023/10/03 12:35:27;;;;;;;9.07;1.25;;;16.00;99.90;;;;;;6271630;22;20358;-89
2023/10/03 12:37:58;;;;;;;9.77;1.40;;;16.60;99.90;;;;;;6245811;22;20922;-89
2023/10/03 12:40:27;;;;;;;11.80;1.50;;;16.40;99.90;;;;;;6246326;22;20366;-91
2023/10/03 12:42:52;;;;;;;8.25;1.27;;;16.10;99.90;;;;;;6246181;22;20452;-90
2023/10/03 12:45:24;;;;;;;8.73;1.10;;;16.70;99.90;;;;;;6273862;22;20371;-91
2023/10/03 12:47:54;;;;;;;8.40;1.17;;;15.90;99.90;;;;;;6271727;22;20763;-90
2023/10/03 12:50:27;;;;;;;8.05;1.42;;;16.20;99.90;;;;;;6273072;22;20378;-91